Flight Track Log - Related Links

Times and Time Zones

All times are in EDT time to prevent confusion due to time zone crossing. See the N1250V flight status page for this flight to view local times or setup timezone preferences in your user account.

Time Position Orientation Groundspeed Altitude Reporting Facility
EDT Latitude Longitude Course Direction KTS MPH feet Rate Location/Type
Thu 08:34:53 PM 40.8667 -74.0500 21° North 151 174 1,300  Level New York TRACON
Thu 08:35:53 PM 40.9000 -74.0333 21° North 173 199 2,900 1,350 Climbing New York TRACON
Thu 08:36:53 PM 40.9000 -74.1000 270° West 189 217 4,000 1,450 Climbing New York TRACON
Thu 08:37:53 PM 40.8833 -74.1833 255° West 226 260 5,800 2,200 Climbing New York TRACON
Thu 08:38:53 PM 40.8667 -74.2500 252° West 218 251 8,400 2,474 Climbing New York TRACON
Thu 08:39:47 PM 40.8333 -74.3167 237° Southwest 225 259 10,500 2,400 Climbing New York TRACON
Thu 08:40:53 PM 40.8167 -74.4000 255° West 219 252 13,200 3,223 Climbing New York TRACON
Thu 08:41:48 PM 40.8122 -74.4642 265° West 219 252 17,000 1,810 Climbing New York Center
Thu 08:42:49 PM 40.7969 -74.5483 257° West 219 252 16,700  Descending New York Center
Thu 08:43:47 PM 40.7778 -74.6267 252° West 238 274 17,000 605 Climbing New York Center
Thu 08:44:48 PM 40.7575 -74.7353 256° West 281 323 17,900 1,150 Climbing New York Center
Thu 08:45:47 PM 40.7381 -74.8217 253° West 286 329 19,300 1,462 Climbing New York Center
Thu 08:46:47 PM 40.7178 -74.9192 255° West 281 323 20,800 1,339 Climbing New York Center
Thu 08:47:48 PM 40.6997 -75.0192 257° West 275 316 22,000 1,140 Climbing New York Center
Thu 08:48:48 PM 40.6717 -75.1078 247° West 275 316 23,100 1,160 Climbing New York Center
Thu 08:49:47 PM 40.6306 -75.1983 239° Southwest 285 328 24,300 1,140 Climbing New York Center
Thu 08:50:49 PM 40.5897 -75.2858 238° Southwest 285 328 25,400 1,050 Climbing New York Center
Thu 08:51:47 PM 40.5508 -75.3761 240° Southwest 285 328 26,400 966 Climbing New York Center
Thu 08:52:47 PM 40.5078 -75.4661 238° Southwest 290 334 27,300 885 Climbing New York Center
Thu 08:53:49 PM 40.4686 -75.5561 240° Southwest 290 334 28,200 800 Climbing New York Center
Thu 08:54:47 PM 40.4278 -75.6433 238° Southwest 285 328 28,900 712 Climbing New York Center
Thu 08:55:47 PM 40.3886 -75.7303 239° Southwest 285 328 29,600 700 Climbing New York Center
Thu 08:56:47 PM 40.3453 -75.8197 238° Southwest 290 334 30,300 689 Climbing New York Center
Thu 08:57:49 PM 40.2997 -75.9092 236° Southwest 290 334 31,000 650 Climbing New York Center
Thu 08:58:47 PM 40.2583 -75.9986 239° Southwest 290 334 31,600 550 Climbing New York Center
Thu 08:59:49 PM 40.2167 -76.0906 239° Southwest 290 334 32,100 550 Climbing New York Center
Thu 09:00:47 PM 40.1747 -76.1878 241° Southwest 290 334 32,700 500 Climbing New York Center
Thu 09:01:49 PM 40.1267 -76.2792 236° Southwest 290 334 33,100 450 Climbing New York Center
Thu 09:02:47 PM 40.0869 -76.3708 240° Southwest 290 334 33,600 450 Climbing New York Center
Thu 09:03:49 PM 40.0428 -76.4650 239° Southwest 295 339 34,000 200 Climbing New York Center
Thu 09:04:47 PM 39.9986 -76.5564 238° Southwest 301 346 34,000  Level New York Center
Thu 09:05:48 PM 39.9611 -76.6428 240° Southwest 301 346 34,000  Level New York Center
Thu 09:06:46 PM 39.9122 -76.7414 237° Southwest 311 358 34,000  Level New York Center
Thu 09:07:28 PM 39.8719 -76.8269 238° Southwest 315 362 34,000  Level Washington Center
Thu 09:08:29 PM 39.8292 -76.9208 239° Southwest 322 371 34,000  Level Washington Center
Thu 09:09:30 PM 39.7822 -77.0197 238° Southwest 322 371 34,000  Level Washington Center
Thu 09:10:28 PM 39.7331 -77.1214 238° Southwest 322 371 34,000  Level Washington Center
Thu 09:11:29 PM 39.6861 -77.2228 239° Southwest 327 376 34,000  Level Washington Center
Thu 09:12:30 PM 39.6367 -77.3269 238° Southwest 332 382 34,000  Level Washington Center
Thu 09:13:30 PM 39.5872 -77.4281 238° Southwest 337 388 34,000  Level Washington Center
Thu 09:14:28 PM 39.5375 -77.5344 239° Southwest 342 394 34,000  Level Washington Center
Thu 09:15:29 PM 39.4900 -77.6353 239° Southwest 342 394 34,000  Level Washington Center
Thu 09:16:30 PM 39.4403 -77.7386 238° Southwest 342 394 34,000  Level Washington Center
Thu 09:17:28 PM 39.3928 -77.8392 239° Southwest 342 394 34,000  Level Washington Center
Thu 09:18:28 PM 39.3511 -77.9400 242° Southwest 335 386 34,000  Level Washington Center
Thu 09:19:30 PM 39.3094 -78.0406 242° Southwest 324 373 34,000  Level Washington Center
Thu 09:20:30 PM 39.2700 -78.1439 244° Southwest 324 373 34,000  Level Washington Center
Thu 09:21:28 PM 39.2325 -78.2364 242° Southwest 324 373 34,000  Level Washington Center
Thu 09:22:29 PM 39.1928 -78.3367 243° Southwest 319 367 34,000  Level Washington Center
Thu 09:23:30 PM 39.1528 -78.4394 243° Southwest 319 367 34,000  Level Washington Center
Thu 09:24:28 PM 39.1108 -78.5394 242° Southwest 319 367 34,000  Level Washington Center
Thu 09:25:29 PM 39.0708 -78.6422 243° Southwest 319 367 34,000  Level Washington Center
Thu 09:26:30 PM 39.0286 -78.7419 241° Southwest 319 367 34,000  Level Washington Center
Thu 09:27:28 PM 38.9861 -78.8444 242° Southwest 319 367 34,000  Level Washington Center
Thu 09:28:29 PM 38.9458 -78.9467 243° Southwest 319 367 34,000  Level Washington Center
Thu 09:29:28 PM 38.9036 -79.0433 241° Southwest 319 367 34,000  Level Washington Center
Thu 09:30:28 PM 38.8631 -79.1456 243° Southwest 319 367 34,000  Level Washington Center
Thu 09:31:30 PM 38.8411 -79.2511 255° West 314 361 34,000  Level Washington Center
Thu 09:32:30 PM 38.8400 -79.3550 269° West 295 339 34,000  Level Washington Center
Thu 09:33:31 PM 38.8367 -79.4561 268° West 295 339 34,000  Level Washington Center
Thu 09:34:29 PM 38.8331 -79.5678 268° West 290 334 34,000  Level Washington Center
Thu 09:35:30 PM 38.8358 -79.6692 272° West 290 334 34,000  Level Washington Center
Thu 09:36:30 PM 38.8325 -79.7731 268° West 290 334 34,000  Level Washington Center
Thu 09:37:34 PM 38.8281 -79.8867 267° West 295 339 34,000  Level Indianapolis Center
Thu 09:38:35 PM 38.8253 -79.9922 268° West 295 339 34,000  Level Indianapolis Center
Thu 09:39:37 PM 38.8214 -80.0981 267° West 296 341 34,000  Level Indianapolis Center
Thu 09:40:38 PM 38.8194 -80.2036 269° West 296 341 34,000  Level Indianapolis Center
Thu 09:41:40 PM 38.8175 -80.3086 269° West 296 341 34,000  Level Indianapolis Center
Thu 09:42:41 PM 38.8139 -80.4128 267° West 296 341 34,000  Level Indianapolis Center
Thu 09:43:43 PM 38.8097 -80.5178 267° West 296 341 34,000  Level Indianapolis Center
Thu 09:44:44 PM 38.8064 -80.6403 268° West 291 335 34,000  Level Indianapolis Center
Thu 09:45:46 PM 38.8033 -80.7417 268° West 290 334 34,000  Level Indianapolis Center
Thu 09:46:47 PM 38.8144 -80.8408 278° West 283 326 34,000  Level Indianapolis Center
Thu 09:47:49 PM 38.8242 -80.9408 277° West 283 326 34,000  Level Indianapolis Center
Thu 09:48:50 PM 38.8336 -81.0417 277° West 284 327 34,000  Level Indianapolis Center
Thu 09:49:51 PM 38.8433 -81.1417 277° West 284 327 34,000  Level Indianapolis Center
Thu 09:50:53 PM 38.8528 -81.2406 277° West 283 326 34,000  Level Indianapolis Center
Thu 09:51:54 PM 38.8622 -81.3392 277° West 283 326 34,000  Level Indianapolis Center
Thu 09:52:56 PM 38.8731 -81.4572 277° West 283 326 34,000  Level Indianapolis Center
Thu 09:53:57 PM 38.8817 -81.5553 276° West 283 326 34,000  Level Indianapolis Center
Thu 09:54:58 PM 38.8911 -81.6542 277° West 283 326 34,000 -732 Level Indianapolis Center
Thu 09:56:00 PM 38.8994 -81.7564 276° West 286 329 32,500 -1,659 Descending Indianapolis Center
Thu 09:57:01 PM 38.9106 -81.8742 277° West 324 373 30,600 -1,721 Descending Indianapolis Center
Thu 09:58:02 PM 38.9208 -81.9967 276° West 342 394 29,000 -1,574 Descending Indianapolis Center
Thu 09:59:03 PM 38.9311 -82.1153 276° West 341 392 27,400 -1,463 Descending Indianapolis Center
Thu 10:00:05 PM 38.9411 -82.2328 276° West 336 387 26,000 -1,512 Descending Indianapolis Center
Thu 10:01:06 PM 38.9528 -82.3700 276° West 327 376 24,300 -1,525 Descending Indianapolis Center
Thu 10:02:07 PM 38.9617 -82.4861 276° West 326 375 22,900 -1,122 Descending Indianapolis Center
Thu 10:03:09 PM 38.9708 -82.6008 276° West 326 375 22,000 -829 Descending Indianapolis Center
Thu 10:04:10 PM 38.9806 -82.7128 276° West 322 371 21,200 -1,082 Descending Indianapolis Center
Thu 10:05:11 PM 38.9867 -82.8214 274° West 309 356 19,800 -1,475 Descending Indianapolis Center
Thu 10:06:12 PM 38.9969 -82.9236 277° West 295 339 18,200 -1,512 Descending Indianapolis Center
Thu 10:07:14 PM 39.0033 -83.0247 275° West 289 333 16,700 -1,512 Descending Indianapolis Center
Thu 10:08:15 PM 39.0114 -83.1253 276° West 285 328 15,100 -1,574 Descending Indianapolis Center
Thu 10:09:16 PM 39.0197 -83.2414 275° West 285 328 13,500 -1,426 Descending Indianapolis Center
Thu 10:10:17 PM 39.0283 -83.3411 276° West 284 327 12,200 -1,317 Descending Indianapolis Center
Thu 10:11:19 PM 39.0347 -83.4400 275° West 282 325 10,800 -1,220 Descending Indianapolis Center
Thu 10:12:20 PM 39.0392 -83.5372 273° West 279 321 9,700 -1,131 Descending Indianapolis Center
Thu 10:13:21 PM 39.0458 -83.6339 275° West 275 316 8,500 -1,377 Descending Indianapolis Center
Thu 10:14:22 PM 39.0558 -83.7311 278° West 275 316 6,900 -1,230 Descending Indianapolis Center
Thu 10:15:23 PM 39.0603 -83.8261 273° West 271 312 6,000 -443 Descending Indianapolis Center
Thu 10:16:24 PM 39.0703 -83.9172 278° West 263 303 6,000 -293 Level Indianapolis Center
Thu 10:17:26 PM 39.0742 -84.0100 273° West 260 299 5,400 -780 Descending Indianapolis Center
Thu 10:18:27 PM 39.0808 -84.0989 276° West 255 293 4,400 -689 Descending Indianapolis Center
Thu 10:19:28 PM 39.0903 -84.1800 279° West 243 280 4,000 -443 Descending Indianapolis Center
Thu 10:20:29 PM 39.1039 -84.2536 283° West 227 261 3,500 -590 Descending Indianapolis Center
Thu 10:21:30 PM 39.1333 -84.3261 298° West 206 237 2,800 -780 Descending Indianapolis Center
Thu 10:22:32 PM 39.1469 -84.3742 290° West 179 206 1,900 -634 Descending Indianapolis Center
Thu 10:23:33 PM 39.1294 -84.4061 235° Southwest 159 183 1,500 -393 Descending Indianapolis Center
Thu 10:25:00 PM 39.1000 -84.4167 284° West  Level FlightAware Approximate

Login

Don't have an account? Register now (free) for customized features, flight alerts, and more!